Time;durP1;ratioP1;P1;durP2;ratioP2;P2;SDS_P1;SDS_P2;PMS_P1;PMS_P2;Temp;Humidity;BMP_temperature;BMP_pressure;BME280_temperature;BME280_humidity;BME280_pressure;Samples;Min_cycle;Max_cycle;Signal;HPM_P1;HPM_P2
2022/10/07 00:01:14;;;;;;;2.27;1.23;;;;;;;;;;4977257;28;20190;-75
2022/10/07 00:03:40;;;;;;;3.53;1.20;;;;;;;;;;4977954;28;20181;-75
2022/10/07 00:06:06;;;;;;;2.80;1.10;;;;;;;;;;4977758;28;20217;-75
2022/10/07 00:08:34;;;;;;;2.13;1.27;;;;;;;;;;4993891;28;20208;-75
2022/10/07 00:11:04;;;;;;;3.73;1.10;;;;;;;;;;4995286;28;20173;-75
2022/10/07 00:13:30;;;;;;;4.77;1.20;;;;;;;;;;4994737;28;20183;-75
2022/10/07 00:16:02;;;;;;;1.87;1.07;;;;;;;;;;4977691;28;20201;-75
2022/10/07 00:18:28;;;;;;;3.77;1.20;;;;;;;;;;4993515;28;20210;-75
2022/10/07 00:20:54;;;;;;;1.83;1.00;;;;;;;;;;4977243;28;20185;-75
2022/10/07 00:23:20;;;;;;;4.30;1.10;;;;;;;;;;4977214;28;20635;-75
2022/10/07 00:25:46;;;;;;;3.40;1.00;;;;;;;;;;4977133;28;20196;-75
2022/10/07 00:28:12;;;;;;;1.50;0.93;;;;;;;;;;4977449;28;20180;-75
2022/10/07 00:30:38;;;;;;;5.03;1.37;;;;;;;;;;4977262;28;20267;-75
2022/10/07 00:33:04;;;;;;;1.90;1.27;;;;;;;;;;4994264;28;20180;-75
2022/10/07 00:35:30;;;;;;;2.80;1.00;;;;;;;;;;4977070;28;20204;-75
2022/10/07 00:37:56;;;;;;;1.70;1.23;;;;;;;;;;4977052;28;20775;-75
2022/10/07 00:40:22;;;;;;;3.57;1.20;;;;;;;;;;4993182;28;20189;-75
2022/10/07 00:42:48;;;;;;;2.33;1.40;;;;;;;;;;4993014;28;20181;-75
2022/10/07 00:45:14;;;;;;;3.93;1.10;;;;;;;;;;4976892;28;20268;-75
2022/10/07 00:47:41;;;;;;;1.90;1.00;;;;;;;;;;4976855;28;20188;-76
2022/10/07 00:50:10;;;;;;;4.10;1.10;;;;;;;;;;4976939;28;20212;-76
2022/10/07 00:52:42;;;;;;;2.90;1.00;;;;;;;;;;4993947;28;20172;-76
2022/10/07 00:55:11;;;;;;;2.90;1.00;;;;;;;;;;4992836;28;20641;-75
2022/10/07 00:57:37;;;;;;;2.30;1.17;;;;;;;;;;4992953;28;20222;-75
2022/10/07 01:00:05;;;;;;;2.53;1.17;;;;;;;;;;4992731;28;20180;-76
2022/10/07 01:02:31;;;;;;;4.80;1.50;;;;;;;;;;4992524;28;20184;-76
2022/10/07 01:04:58;;;;;;;4.00;1.27;;;;;;;;;;4992826;28;20211;-76
2022/10/07 01:07:25;;;;;;;3.10;1.07;;;;;;;;;;5017629;23;20729;-76
2022/10/07 01:09:51;;;;;;;2.83;1.13;;;;;;;;;;4992886;28;20175;-76
2022/10/07 01:12:17;;;;;;;2.13;1.10;;;;;;;;;;4992362;28;20275;-76
2022/10/07 01:15:02;;;;;;;2.93;1.23;;;;;;;;;;4992550;28;20548;-76
2022/10/07 01:17:28;;;;;;;2.87;1.10;;;;;;;;;;4975332;28;20654;-76
2022/10/07 01:20:07;;;;;;;3.00;1.30;;;;;;;;;;4973033;28;20757;-76
2022/10/07 01:22:52;;;;;;;3.40;1.20;;;;;;;;;;4973042;28;20168;-76
2022/10/07 01:25:25;;;;;;;4.33;1.23;;;;;;;;;;4972935;28;20172;-76
2022/10/07 01:27:53;;;;;;;2.47;1.20;;;;;;;;;;4972904;28;20183;-76
2022/10/07 01:30:19;;;;;;;4.70;1.77;;;;;;;;;;4972783;28;20231;-76
2022/10/07 01:32:58;;;;;;;3.00;1.57;;;;;;;;;;4956943;28;20191;-76
2022/10/07 01:35:25;;;;;;;2.33;1.20;;;;;;;;;;4972785;28;20180;-76
2022/10/07 01:37:59;;;;;;;2.83;1.30;;;;;;;;;;4972827;28;20208;-76
2022/10/07 01:40:27;;;;;;;2.17;1.23;;;;;;;;;;4972850;28;20175;-76
2022/10/07 01:42:54;;;;;;;3.23;1.40;;;;;;;;;;4972600;28;20263;-76
2022/10/07 01:45:21;;;;;;;1.90;1.07;;;;;;;;;;4972844;28;20265;-76
2022/10/07 01:47:49;;;;;;;1.70;1.00;;;;;;;;;;4972520;28;20650;-76
2022/10/07 01:50:16;;;;;;;2.67;1.43;;;;;;;;;;4973764;28;20265;-76
2022/10/07 01:52:54;;;;;;;2.87;1.23;;;;;;;;;;4972458;28;20320;-76
2022/10/07 01:55:23;;;;;;;1.97;1.20;;;;;;;;;;4972425;28;20191;-76
2022/10/07 01:58:05;;;;;;;3.13;1.10;;;;;;;;;;4972662;28;20598;-76
2022/10/07 02:00:32;;;;;;;4.73;1.40;;;;;;;;;;4972612;28;20179;-76
2022/10/07 02:03:17;;;;;;;2.10;0.97;;;;;;;;;;4972237;28;20275;-76
2022/10/07 02:06:06;;;;;;;3.90;1.40;;;;;;;;;;4972119;28;20250;-76
2022/10/07 02:08:37;;;;;;;1.80;1.07;;;;;;;;;;4972531;28;20183;-76
2022/10/07 02:11:15;;;;;;;2.67;1.03;;;;;;;;;;4972464;28;20312;-76
2022/10/07 02:13:51;;;;;;;1.53;1.30;;;;;;;;;;4973581;28;20176;-76
2022/10/07 02:16:27;;;;;;;3.17;1.40;;;;;;;;;;4972012;28;20196;-76
2022/10/07 02:18:54;;;;;;;3.50;1.20;;;;;;;;;;4972341;28;20191;-76
2022/10/07 02:21:22;;;;;;;2.80;1.20;;;;;;;;;;4972160;28;20667;-76
2022/10/07 02:23:48;;;;;;;3.10;1.20;;;;;;;;;;4977686;28;20233;-76
2022/10/07 02:26:17;;;;;;;2.80;1.00;;;;;;;;;;4978677;28;20202;-76
2022/10/07 02:28:44;;;;;;;2.00;1.00;;;;;;;;;;4978625;28;20270;-76
2022/10/07 02:31:11;;;;;;;2.70;1.00;;;;;;;;;;4978343;28;20275;-76
2022/10/07 02:33:39;;;;;;;3.57;1.30;;;;;;;;;;4962601;28;20557;-76
2022/10/07 02:36:09;;;;;;;1.80;1.20;;;;;;;;;;4979755;28;20222;-76
2022/10/07 02:38:37;;;;;;;5.07;1.03;;;;;;;;;;4979636;28;20227;-76
2022/10/07 02:41:04;;;;;;;3.87;1.20;;;;;;;;;;4979475;28;20173;-76
2022/10/07 02:43:35;;;;;;;2.80;1.43;;;;;;;;;;4978630;28;20203;-75
2022/10/07 02:46:41;;;;;;;3.30;1.30;;;;;;;;;;4978506;28;20283;-76
2022/10/07 02:49:09;;;;;;;2.90;1.10;;;;;;;;;;4941940;29;20185;-76
2022/10/07 02:51:38;;;;;;;4.70;1.40;;;;;;;;;;4941598;29;20180;-76
2022/10/07 02:54:04;;;;;;;4.50;1.40;;;;;;;;;;4958942;28;20211;-76
2022/10/07 02:56:36;;;;;;;3.37;1.50;;;;;;;;;;4962274;28;20586;-76
2022/10/07 02:59:03;;;;;;;3.47;1.30;;;;;;;;;;4978515;28;20183;-76
2022/10/07 03:01:31;;;;;;;2.40;1.20;;;;;;;;;;4979323;28;20171;-76
2022/10/07 03:03:57;;;;;;;2.37;1.30;;;;;;;;;;4978283;28;20186;-76
2022/10/07 03:06:24;;;;;;;3.80;1.30;;;;;;;;;;4978144;28;20744;-76
2022/10/07 03:08:50;;;;;;;3.93;1.10;;;;;;;;;;4979646;28;20169;-76
2022/10/07 03:11:16;;;;;;;1.40;1.00;;;;;;;;;;4977997;28;20190;-75
2022/10/07 03:13:44;;;;;;;2.90;1.10;;;;;;;;;;4962121;28;20182;-75
2022/10/07 03:16:10;;;;;;;3.03;1.07;;;;;;;;;;4977911;28;20204;-75
2022/10/07 03:18:36;;;;;;;3.73;1.10;;;;;;;;;;4962025;28;20390;-76
2022/10/07 03:21:03;;;;;;;3.50;1.40;;;;;;;;;;4962357;28;20191;-75
2022/10/07 03:23:29;;;;;;;2.23;1.30;;;;;;;;;;4962163;28;20187;-76
2022/10/07 03:25:56;;;;;;;4.23;1.40;;;;;;;;;;4962194;28;20204;-75
2022/10/07 03:28:23;;;;;;;1.73;1.20;;;;;;;;;;4978156;28;20215;-75
2022/10/07 03:30:50;;;;;;;3.27;1.60;;;;;;;;;;4977893;28;20183;-76
2022/10/07 03:33:16;;;;;;;2.80;1.17;;;;;;;;;;4977536;28;20188;-75
2022/10/07 03:35:43;;;;;;;2.80;1.67;;;;;;;;;;4958057;28;20242;-75
2022/10/07 03:38:09;;;;;;;3.27;1.20;;;;;;;;;;4974929;28;20245;-75
2022/10/07 03:40:36;;;;;;;1.93;1.10;;;;;;;;;;4975091;28;20395;-75
2022/10/07 03:43:03;;;;;;;1.90;1.07;;;;;;;;;;4974718;28;20597;-76
2022/10/07 03:45:29;;;;;;;1.37;1.00;;;;;;;;;;4974705;28;20180;-75
2022/10/07 03:47:55;;;;;;;1.90;1.20;;;;;;;;;;4958645;28;20187;-75
2022/10/07 03:50:21;;;;;;;2.93;1.37;;;;;;;;;;4958666;28;20277;-75
2022/10/07 03:52:47;;;;;;;3.23;1.23;;;;;;;;;;4958743;28;20286;-75
2022/10/07 03:55:13;;;;;;;1.73;1.20;;;;;;;;;;4974677;28;20187;-75
2022/10/07 03:57:56;;;;;;;1.53;1.20;;;;;;;;;;4958374;28;20242;-75
2022/10/07 04:00:23;;;;;;;2.23;1.50;;;;;;;;;;4960770;28;20713;-75
2022/10/07 04:02:49;;;;;;;3.00;1.40;;;;;;;;;;4974479;28;20224;-75
2022/10/07 04:05:16;;;;;;;1.80;1.23;;;;;;;;;;4974541;28;20608;-75
2022/10/07 04:07:43;;;;;;;1.47;1.23;;;;;;;;;;4974255;28;20219;-75
2022/10/07 04:10:10;;;;;;;3.00;1.40;;;;;;;;;;4975688;28;20544;-75
2022/10/07 04:12:36;;;;;;;1.73;1.20;;;;;;;;;;4974001;28;20210;-75
2022/10/07 04:15:02;;;;;;;1.60;1.40;;;;;;;;;;4958283;28;20197;-75
2022/10/07 04:17:28;;;;;;;2.13;1.40;;;;;;;;;;4957875;28;20740;-76
2022/10/07 04:19:54;;;;;;;2.47;1.30;;;;;;;;;;4974254;28;20174;-76
2022/10/07 04:22:20;;;;;;;2.47;1.33;;;;;;;;;;4974272;28;20253;-75
2022/10/07 04:25:32;;;;;;;3.57;1.50;;;;;;;;;;4958092;28;20645;-75
2022/10/07 04:27:32;;;;;;;2.13;1.30;;;;;;;;;;4973971;28;20779;-76
2022/10/07 04:29:58;;;;;;;3.00;1.80;;;;;;;;;;4974055;28;20186;-76
2022/10/07 04:32:24;;;;;;;1.40;1.13;;;;;;;;;;4957889;28;20190;-76
2022/10/07 04:34:51;;;;;;;2.77;1.40;;;;;;;;;;4958181;28;20617;-75
2022/10/07 04:37:17;;;;;;;1.20;1.00;;;;;;;;;;4957901;28;20705;-76
2022/10/07 04:39:43;;;;;;;1.73;1.03;;;;;;;;;;4974021;28;20221;-76
2022/10/07 04:43:17;;;;;;;1.07;0.93;;;;;;;;;;4957434;28;20281;-75
2022/10/07 04:44:55;;;;;;;1.97;1.13;;;;;;;;;;4973716;28;20202;-75
2022/10/07 04:47:21;;;;;;;2.53;1.37;;;;;;;;;;4957486;28;20212;-75
2022/10/07 04:49:47;;;;;;;2.43;1.60;;;;;;;;;;4957646;28;20216;-75
2022/10/07 04:52:13;;;;;;;1.50;1.40;;;;;;;;;;4957294;28;20571;-75
2022/10/07 04:54:40;;;;;;;1.70;1.30;;;;;;;;;;4957608;28;20273;-75
2022/10/07 04:57:08;;;;;;;1.80;1.30;;;;;;;;;;4973306;28;20703;-76
2022/10/07 04:59:35;;;;;;;2.57;1.10;;;;;;;;;;4973445;28;20650;-76
2022/10/07 05:02:01;;;;;;;1.40;1.20;;;;;;;;;;4973345;28;20174;-76
2022/10/07 05:04:28;;;;;;;3.13;1.50;;;;;;;;;;4957389;28;20177;-75
2022/10/07 05:06:54;;;;;;;2.20;1.03;;;;;;;;;;4973289;28;20228;-75
2022/10/07 05:09:20;;;;;;;1.57;1.23;;;;;;;;;;4957299;28;20193;-75
2022/10/07 05:11:47;;;;;;;2.30;1.10;;;;;;;;;;4972994;28;20185;-75
2022/10/07 05:14:14;;;;;;;1.50;1.13;;;;;;;;;;4973184;28;20248;-75
2022/10/07 05:16:41;;;;;;;3.00;1.00;;;;;;;;;;4956671;28;20684;-75
2022/10/07 05:19:09;;;;;;;1.80;1.00;;;;;;;;;;4957299;28;20650;-75
2022/10/07 05:21:35;;;;;;;2.27;1.20;;;;;;;;;;4957321;28;20239;-76
2022/10/07 05:24:01;;;;;;;2.30;1.40;;;;;;;;;;4957084;28;20180;-75
2022/10/07 05:26:27;;;;;;;2.77;1.13;;;;;;;;;;4972988;28;20193;-75
2022/10/07 05:28:53;;;;;;;3.30;1.23;;;;;;;;;;4973046;28;20189;-75
2022/10/07 05:31:19;;;;;;;3.10;1.20;;;;;;;;;;4972708;28;20221;-75
2022/10/07 05:33:48;;;;;;;1.70;1.20;;;;;;;;;;4956911;28;20188;-75
2022/10/07 05:36:14;;;;;;;2.00;1.10;;;;;;;;;;4973855;28;20214;-75
2022/10/07 05:38:40;;;;;;;4.83;1.20;;;;;;;;;;4972594;28;20641;-75
2022/10/07 05:41:07;;;;;;;2.30;1.27;;;;;;;;;;4972778;28;20176;-75
2022/10/07 05:43:34;;;;;;;1.77;1.10;;;;;;;;;;4974042;28;20169;-75
2022/10/07 05:46:01;;;;;;;1.67;1.00;;;;;;;;;;4972617;28;20192;-75
2022/10/07 05:48:28;;;;;;;2.30;1.10;;;;;;;;;;4972600;28;20558;-75
2022/10/07 05:50:56;;;;;;;2.57;1.23;;;;;;;;;;4972732;28;20643;-75
2022/10/07 05:53:22;;;;;;;2.60;1.20;;;;;;;;;;4956548;28;20275;-75
2022/10/07 05:55:49;;;;;;;2.43;1.20;;;;;;;;;;4973807;28;20194;-75
2022/10/07 05:58:15;;;;;;;2.00;1.33;;;;;;;;;;4956026;28;20695;-75
2022/10/07 06:00:48;;;;;;;3.50;1.30;;;;;;;;;;4956585;28;20185;-75
2022/10/07 06:03:14;;;;;;;2.90;1.30;;;;;;;;;;4972260;28;20177;-79
2022/10/07 06:05:40;;;;;;;4.40;1.23;;;;;;;;;;4956153;28;20658;-75
2022/10/07 06:08:06;;;;;;;3.07;1.10;;;;;;;;;;4956498;28;20188;-75
2022/10/07 06:13:18;;;;;;;3.53;1.40;;;;;;;;;;4972640;28;20196;-75
2022/10/07 06:15:44;;;;;;;4.40;1.60;;;;;;;;;;4955769;28;20209;-75
2022/10/07 06:18:10;;;;;;;2.53;1.80;;;;;;;;;;4956134;28;20209;-75
2022/10/07 06:20:36;;;;;;;3.83;1.67;;;;;;;;;;4972411;28;20592;-75
2022/10/07 06:23:02;;;;;;;2.67;1.33;;;;;;;;;;4955816;28;20192;-75
2022/10/07 06:25:28;;;;;;;2.43;1.47;;;;;;;;;;4955950;28;20183;-75
2022/10/07 06:27:57;;;;;;;1.90;1.30;;;;;;;;;;4972175;28;20181;-75
2022/10/07 06:30:24;;;;;;;2.63;1.30;;;;;;;;;;4956036;28;20197;-75
2022/10/07 06:32:50;;;;;;;3.03;1.40;;;;;;;;;;4972113;28;20268;-75
2022/10/07 06:35:16;;;;;;;3.53;1.40;;;;;;;;;;4972285;28;20214;-75
2022/10/07 06:37:42;;;;;;;2.33;1.40;;;;;;;;;;4956046;28;20606;-75
2022/10/07 06:40:09;;;;;;;2.33;1.40;;;;;;;;;;4956270;28;20279;-75
2022/10/07 06:42:35;;;;;;;2.00;1.50;;;;;;;;;;4955943;28;20217;-75
2022/10/07 06:45:01;;;;;;;3.17;1.60;;;;;;;;;;4973177;28;20252;-75
2022/10/07 06:47:27;;;;;;;1.57;1.40;;;;;;;;;;4972102;28;20224;-75
2022/10/07 06:49:53;;;;;;;2.30;2.10;;;;;;;;;;4973228;28;20574;-75
2022/10/07 06:52:19;;;;;;;2.90;1.67;;;;;;;;;;4973024;28;20261;-75
2022/10/07 06:54:45;;;;;;;3.20;1.90;;;;;;;;;;4972050;28;20273;-75
2022/10/07 06:57:11;;;;;;;2.27;1.77;;;;;;;;;;4971788;28;20678;-75
2022/10/07 06:59:37;;;;;;;2.70;1.90;;;;;;;;;;4971794;28;20211;-75
2022/10/07 07:02:03;;;;;;;2.20;1.80;;;;;;;;;;4955892;28;20215;-75
2022/10/07 07:04:29;;;;;;;4.17;1.70;;;;;;;;;;4971941;28;20174;-75
2022/10/07 07:06:56;;;;;;;2.20;1.73;;;;;;;;;;4972103;28;20217;-75
2022/10/07 07:09:22;;;;;;;2.20;1.63;;;;;;;;;;4973964;28;20192;-75
2022/10/07 07:11:48;;;;;;;2.23;1.80;;;;;;;;;;4959305;28;20182;-75
2022/10/07 07:14:14;;;;;;;2.60;1.53;;;;;;;;;;4959689;28;20178;-76
2022/10/07 07:16:41;;;;;;;1.80;1.53;;;;;;;;;;4958875;28;20296;-76
2022/10/07 07:19:08;;;;;;;3.67;1.70;;;;;;;;;;4975356;28;20320;-75
2022/10/07 07:21:36;;;;;;;4.33;2.40;;;;;;;;;;4975074;28;20197;-76
2022/10/07 07:24:02;;;;;;;5.40;2.33;;;;;;;;;;4975304;28;20252;-75
2022/10/07 07:26:29;;;;;;;3.27;1.80;;;;;;;;;;4974992;28;20294;-76
2022/10/07 07:28:59;;;;;;;2.87;1.60;;;;;;;;;;4976209;28;20183;-75
2022/10/07 07:31:26;;;;;;;4.30;1.80;;;;;;;;;;4976173;28;20191;-76
2022/10/07 07:33:52;;;;;;;3.50;1.53;;;;;;;;;;4976142;28;20168;-75
2022/10/07 07:36:19;;;;;;;1.57;1.43;;;;;;;;;;4959070;28;20208;-75
2022/10/07 07:38:50;;;;;;;2.10;1.43;;;;;;;;;;4976019;28;20205;-76
2022/10/07 07:41:16;;;;;;;1.87;1.50;;;;;;;;;;4974694;28;20191;-75
2022/10/07 07:43:42;;;;;;;2.57;1.67;;;;;;;;;;4958980;28;20183;-76
2022/10/07 07:46:11;;;;;;;3.00;1.80;;;;;;;;;;4974949;28;20202;-76
2022/10/07 07:48:37;;;;;;;3.67;1.80;;;;;;;;;;4959085;28;20238;-76
2022/10/07 07:51:05;;;;;;;2.80;1.83;;;;;;;;;;4974660;28;20254;-76
2022/10/07 07:53:32;;;;;;;2.97;1.83;;;;;;;;;;4974423;28;20194;-77
2022/10/07 07:55:58;;;;;;;3.93;2.00;;;;;;;;;;4974461;28;20294;-76
2022/10/07 07:58:24;;;;;;;2.30;2.00;;;;;;;;;;4958491;28;20772;-76
2022/10/07 08:01:00;;;;;;;5.47;2.30;;;;;;;;;;4976053;28;20170;-76
2022/10/07 08:03:26;;;;;;;4.47;2.33;;;;;;;;;;4974411;28;20183;-76
2022/10/07 08:05:52;;;;;;;3.67;2.00;;;;;;;;;;4974355;28;20224;-76
2022/10/07 08:08:18;;;;;;;3.80;2.20;;;;;;;;;;4974179;28;20181;-78
2022/10/07 08:10:44;;;;;;;4.10;2.60;;;;;;;;;;4974446;28;20182;-76
2022/10/07 08:13:10;;;;;;;4.17;2.17;;;;;;;;;;4958111;28;20181;-76
2022/10/07 08:15:36;;;;;;;4.07;2.10;;;;;;;;;;4958007;28;20286;-76
2022/10/07 08:18:05;;;;;;;4.10;2.13;;;;;;;;;;4974456;28;20203;-76
2022/10/07 08:20:31;;;;;;;4.83;2.10;;;;;;;;;;4973539;28;20182;-77
2022/10/07 08:22:58;;;;;;;2.90;1.80;;;;;;;;;;4958246;28;20195;-76
2022/10/07 08:25:26;;;;;;;3.03;2.00;;;;;;;;;;4958320;28;20174;-77
2022/10/07 08:27:53;;;;;;;2.30;1.80;;;;;;;;;;4958264;28;20192;-77
2022/10/07 08:30:19;;;;;;;4.43;1.90;;;;;;;;;;4957952;28;20258;-76
2022/10/07 08:32:45;;;;;;;2.60;1.80;;;;;;;;;;4957877;28;20191;-78
2022/10/07 08:35:11;;;;;;;2.47;1.60;;;;;;;;;;4973973;28;20194;-77
2022/10/07 08:37:37;;;;;;;3.80;1.77;;;;;;;;;;4957659;28;20216;-77
2022/10/07 08:40:03;;;;;;;2.30;1.80;;;;;;;;;;4974075;28;20186;-77
2022/10/07 08:42:40;;;;;;;4.90;2.30;;;;;;;;;;4973756;28;20180;-76
2022/10/07 08:45:10;;;;;;;4.03;1.90;;;;;;;;;;4973924;28;20176;-77
2022/10/07 08:47:42;;;;;;;4.67;1.90;;;;;;;;;;4973590;28;20211;-77
2022/10/07 08:50:14;;;;;;;4.17;2.17;;;;;;;;;;4957950;28;20195;-76
2022/10/07 08:52:44;;;;;;;4.77;2.13;;;;;;;;;;4973322;28;20180;-77
2022/10/07 08:55:27;;;;;;;3.23;2.00;;;;;;;;;;4974709;28;20172;-77
2022/10/07 08:58:02;;;;;;;5.57;2.17;;;;;;;;;;4973567;28;20201;-77
2022/10/07 09:00:34;;;;;;;5.03;2.50;;;;;;;;;;4974590;28;20534;-77
2022/10/07 09:03:09;;;;;;;6.53;2.40;;;;;;;;;;4973382;28;20180;-77
2022/10/07 09:05:39;;;;;;;3.13;1.93;;;;;;;;;;4973081;28;20184;-77
2022/10/07 09:08:13;;;;;;;4.80;2.53;;;;;;;;;;4973444;28;20193;-77
2022/10/07 09:10:47;;;;;;;4.67;2.00;;;;;;;;;;4957181;28;20184;-77
2022/10/07 09:13:19;;;;;;;5.17;1.93;;;;;;;;;;4973214;28;20191;-77
2022/10/07 09:15:59;;;;;;;3.57;1.70;;;;;;;;;;4972996;28;20204;-77
2022/10/07 09:18:35;;;;;;;2.30;1.37;;;;;;;;;;4973077;28;20246;-77
2022/10/07 09:21:03;;;;;;;2.60;1.13;;;;;;;;;;4956867;28;20183;-77
2022/10/07 09:23:30;;;;;;;1.90;1.23;;;;;;;;;;4957133;28;20216;-77
2022/10/07 09:25:56;;;;;;;2.70;1.17;;;;;;;;;;4973073;28;20200;-77
2022/10/07 09:28:28;;;;;;;2.30;1.37;;;;;;;;;;4973261;28;20180;-77
2022/10/07 09:30:55;;;;;;;3.60;1.63;;;;;;;;;;4972801;28;20230;-77
2022/10/07 09:33:22;;;;;;;6.97;2.40;;;;;;;;;;4956132;28;20184;-77
2022/10/07 09:35:53;;;;;;;5.00;2.20;;;;;;;;;;4972513;28;20200;-77
2022/10/07 09:38:49;;;;;;;5.67;2.03;;;;;;;;;;4972781;28;20208;-77
2022/10/07 09:41:23;;;;;;;3.07;1.80;;;;;;;;;;4969182;28;20667;-77
2022/10/07 09:43:49;;;;;;;3.70;1.90;;;;;;;;;;4972658;28;20183;-77
2022/10/07 09:46:29;;;;;;;2.67;1.90;;;;;;;;;;4972434;28;20200;-77
2022/10/07 09:48:55;;;;;;;5.43;1.90;;;;;;;;;;4972568;28;20187;-77
2022/10/07 09:51:25;;;;;;;3.77;1.80;;;;;;;;;;4956337;28;20188;-77
2022/10/07 09:53:56;;;;;;;2.73;1.63;;;;;;;;;;4957423;28;20184;-77
2022/10/07 09:56:34;;;;;;;4.73;1.70;;;;;;;;;;4972350;28;20222;-77
2022/10/07 09:59:17;;;;;;;4.03;1.70;;;;;;;;;;4972340;28;20276;-77
2022/10/07 10:01:51;;;;;;;2.77;1.90;;;;;;;;;;4956412;28;20176;-77
2022/10/07 10:04:18;;;;;;;3.93;1.80;;;;;;;;;;4956532;28;20184;-77
2022/10/07 10:06:45;;;;;;;4.10;1.80;;;;;;;;;;4972051;28;20212;-77
2022/10/07 10:09:12;;;;;;;3.57;1.67;;;;;;;;;;4972221;28;20172;-77
2022/10/07 10:11:38;;;;;;;2.90;1.50;;;;;;;;;;4956095;28;20180;-77
2022/10/07 10:14:24;;;;;;;3.27;1.73;;;;;;;;;;4972160;28;20239;-77
2022/10/07 10:16:50;;;;;;;3.60;1.80;;;;;;;;;;4971702;28;20200;-77
2022/10/07 10:19:24;;;;;;;3.53;1.80;;;;;;;;;;4956242;28;20666;-77
2022/10/07 10:21:57;;;;;;;4.50;1.90;;;;;;;;;;4972000;28;20176;-77
2022/10/07 10:27:13;;;;;;;3.97;2.00;;;;;;;;;;4973565;28;20705;-77
2022/10/07 10:29:39;;;;;;;3.63;1.63;;;;;;;;;;4972136;28;20250;-77
2022/10/07 10:32:06;;;;;;;2.50;1.50;;;;;;;;;;4971853;28;20650;-77
2022/10/07 10:34:34;;;;;;;3.40;1.70;;;;;;;;;;4972020;28;20182;-77
2022/10/07 10:37:03;;;;;;;5.37;1.83;;;;;;;;;;4972076;28;20589;-77
2022/10/07 10:39:29;;;;;;;3.27;1.80;;;;;;;;;;4972126;28;20177;-77
2022/10/07 10:41:57;;;;;;;2.87;1.40;;;;;;;;;;4971886;28;20175;-77
2022/10/07 10:44:31;;;;;;;3.17;1.50;;;;;;;;;;4974129;28;20180;-77
2022/10/07 10:47:13;;;;;;;3.43;1.50;;;;;;;;;;4975903;28;20699;-77
2022/10/07 10:50:03;;;;;;;2.07;1.40;;;;;;;;;;4975747;28;20180;-77
2022/10/07 10:52:29;;;;;;;2.90;1.60;;;;;;;;;;4975669;28;20231;-77
2022/10/07 10:55:13;;;;;;;3.07;1.40;;;;;;;;;;4975660;28;20181;-77
2022/10/07 10:57:58;;;;;;;2.30;1.30;;;;;;;;;;4975479;28;20211;-77
2022/10/07 11:00:24;;;;;;;2.27;1.20;;;;;;;;;;4975642;28;20652;-77
2022/10/07 11:02:58;;;;;;;2.53;1.50;;;;;;;;;;4959545;28;20177;-77
2022/10/07 11:05:25;;;;;;;3.77;1.33;;;;;;;;;;4976650;28;20173;-77
2022/10/07 11:08:10;;;;;;;2.77;1.40;;;;;;;;;;4975691;28;20227;-77
2022/10/07 11:10:41;;;;;;;3.77;1.40;;;;;;;;;;4975621;28;20304;-77
2022/10/07 11:13:18;;;;;;;3.33;1.40;;;;;;;;;;4959317;28;20189;-77
2022/10/07 11:15:50;;;;;;;2.60;1.37;;;;;;;;;;4974877;28;20694;-77
2022/10/07 11:18:26;;;;;;;4.53;1.40;;;;;;;;;;4976787;28;20263;-77
2022/10/07 11:20:53;;;;;;;4.03;1.40;;;;;;;;;;4975157;28;20568;-77
2022/10/07 11:23:40;;;;;;;2.87;1.40;;;;;;;;;;4959026;28;20188;-77
2022/10/07 11:26:26;;;;;;;3.97;1.70;;;;;;;;;;4974999;28;20196;-77
2022/10/07 11:28:53;;;;;;;2.10;1.47;;;;;;;;;;4975043;28;20193;-77
2022/10/07 11:31:35;;;;;;;5.05;1.67;;;;;;;;;;4958866;28;20279;-77
2022/10/07 11:34:17;;;;;;;4.00;1.40;;;;;;;;;;4974918;28;20180;-78
2022/10/07 11:36:52;;;;;;;2.53;1.40;;;;;;;;;;4975100;28;20247;-78
2022/10/07 11:39:18;;;;;;;2.10;1.50;;;;;;;;;;4974820;28;20714;-77
2022/10/07 11:42:07;;;;;;;2.83;1.50;;;;;;;;;;4959057;28;20293;-77
2022/10/07 11:44:37;;;;;;;3.72;1.55;;;;;;;;;;4976169;28;20168;-77
2022/10/07 11:47:05;;;;;;;4.55;1.60;;;;;;;;;;4974931;28;20247;-78
2022/10/07 11:49:35;;;;;;;3.42;1.27;;;;;;;;;;4959247;28;20651;-77
2022/10/07 11:52:19;;;;;;;2.83;1.20;;;;;;;;;;4975823;28;20172;-77
2022/10/07 11:54:51;;;;;;;3.67;1.23;;;;;;;;;;4974159;28;20195;-78
2022/10/07 11:57:19;;;;;;;2.50;1.25;;;;;;;;;;4975543;28;20604;-78
2022/10/07 11:59:48;;;;;;;2.95;1.27;;;;;;;;;;4975056;28;20235;-77
2022/10/07 12:02:30;;;;;;;1.85;1.25;;;;;;;;;;4974747;28;20173;-77
2022/10/07 12:04:56;;;;;;;2.17;1.30;;;;;;;;;;4975992;28;20161;-78
2022/10/07 12:07:34;;;;;;;4.13;1.50;;;;;;;;;;4977111;28;20568;-79
2022/10/07 12:10:03;;;;;;;2.95;1.50;;;;;;;;;;4975065;28;20177;-77
2022/10/07 12:12:45;;;;;;;3.78;1.30;;;;;;;;;;4974170;28;20251;-78
2022/10/07 12:15:29;;;;;;;2.80;1.63;;;;;;;;;;4975620;28;20176;-78
2022/10/07 12:18:18;;;;;;;5.18;1.40;;;;;;;;;;4974282;28;20310;-77
2022/10/07 12:20:45;;;;;;;5.53;1.73;;;;;;;;;;4974467;28;20180;-77
2022/10/07 12:23:27;;;;;;;2.55;1.33;;;;;;;;;;4975340;28;20165;-77
2022/10/07 12:25:53;;;;;;;4.93;1.83;;;;;;;;;;4974210;28;20192;-77
2022/10/07 12:28:25;;;;;;;2.65;1.50;;;;;;;;;;4975372;28;20227;-78
2022/10/07 12:30:53;;;;;;;4.88;1.80;;;;;;;;;;4973854;28;20643;-78
2022/10/07 12:33:33;;;;;;;2.95;1.20;;;;;;;;;;4973830;28;20215;-78
2022/10/07 12:36:20;;;;;;;3.25;1.42;;;;;;;;;;4974042;28;20203;-77
2022/10/07 12:39:10;;;;;;;2.97;1.60;;;;;;;;;;4973789;28;20200;-77
2022/10/07 12:41:41;;;;;;;2.47;1.38;;;;;;;;;;4973515;28;20227;-78
2022/10/07 12:44:16;;;;;;;4.70;1.63;;;;;;;;;;4974011;28;20173;-77
2022/10/07 12:47:00;;;;;;;2.80;1.58;;;;;;;;;;4974813;28;20667;-77
2022/10/07 12:49:31;;;;;;;3.45;1.35;;;;;;;;;;4973533;28;20232;-78
2022/10/07 12:51:58;;;;;;;2.05;1.38;;;;;;;;;;4974679;28;20169;-77
2022/10/07 12:54:30;;;;;;;2.47;1.30;;;;;;;;;;4973699;28;20186;-78
2022/10/07 12:56:57;;;;;;;2.47;1.70;;;;;;;;;;4973450;28;20217;-77
2022/10/07 12:59:46;;;;;;;2.03;1.17;;;;;;;;;;4973550;28;20236;-77
2022/10/07 13:02:13;;;;;;;3.72;1.70;;;;;;;;;;4973208;28;20822;-78
2022/10/07 13:04:51;;;;;;;5.20;1.52;;;;;;;;;;4973566;28;20602;-78
2022/10/07 13:07:24;;;;;;;4.72;1.38;;;;;;;;;;4973571;28;20222;-77
2022/10/07 13:10:06;;;;;;;3.22;1.67;;;;;;;;;;4973471;28;20176;-77
2022/10/07 13:12:38;;;;;;;3.63;1.45;;;;;;;;;;4973022;28;20647;-77
2022/10/07 13:15:19;;;;;;;3.08;1.40;;;;;;;;;;4974540;28;20176;-77
2022/10/07 13:18:03;;;;;;;2.95;1.40;;;;;;;;;;4972986;28;20227;-77
2022/10/07 13:20:49;;;;;;;3.75;1.52;;;;;;;;;;4972974;28;20164;-77
2022/10/07 13:23:17;;;;;;;2.13;1.60;;;;;;;;;;4972878;28;20172;-77
2022/10/07 13:25:53;;;;;;;3.92;1.85;;;;;;;;;;4972870;28;20294;-77
2022/10/07 13:28:25;;;;;;;4.90;1.45;;;;;;;;;;4974217;28;20172;-77
2022/10/07 13:30:52;;;;;;;4.32;1.83;;;;;;;;;;4956893;28;20558;-77
2022/10/07 13:33:29;;;;;;;2.55;1.65;;;;;;;;;;4972681;28;20183;-76
2022/10/07 13:36:06;;;;;;;2.33;1.50;;;;;;;;;;4973182;28;20243;-77
2022/10/07 13:38:32;;;;;;;4.88;1.83;;;;;;;;;;4972772;28;20204;-77
2022/10/07 13:41:03;;;;;;;5.65;1.98;;;;;;;;;;4956751;28;20227;-77
2022/10/07 13:43:30;;;;;;;3.42;1.60;;;;;;;;;;4972512;28;20180;-77
2022/10/07 13:45:57;;;;;;;2.00;1.58;;;;;;;;;;4972484;28;20273;-77
2022/10/07 13:48:25;;;;;;;5.40;1.50;;;;;;;;;;4972614;28;20176;-77
2022/10/07 13:50:53;;;;;;;4.65;1.75;;;;;;;;;;4972497;28;20181;-77
2022/10/07 13:53:21;;;;;;;4.57;1.98;;;;;;;;;;4956411;28;20206;-77
2022/10/07 13:55:47;;;;;;;2.60;1.38;;;;;;;;;;4972489;28;20200;-77
2022/10/07 13:58:13;;;;;;;5.03;1.77;;;;;;;;;;4972378;28;20200;-77
2022/10/07 14:00:45;;;;;;;2.70;1.70;;;;;;;;;;4972390;28;20203;-77
2022/10/07 14:03:15;;;;;;;3.80;1.70;;;;;;;;;;4972190;28;20168;-77
2022/10/07 14:05:49;;;;;;;5.10;1.70;;;;;;;;;;4972269;28;20243;-77
2022/10/07 14:08:24;;;;;;;5.07;1.83;;;;;;;;;;4972269;28;20249;-77
2022/10/07 14:10:53;;;;;;;3.08;1.63;;;;;;;;;;4972178;28;20176;-77
2022/10/07 14:13:19;;;;;;;3.38;1.60;;;;;;;;;;4972296;28;20184;-77
2022/10/07 14:15:47;;;;;;;4.78;1.70;;;;;;;;;;4972372;28;20246;-77
2022/10/07 14:18:14;;;;;;;3.83;1.70;;;;;;;;;;4955773;28;20558;-77
2022/10/07 14:20:42;;;;;;;4.28;1.60;;;;;;;;;;4972213;28;20172;-77
2022/10/07 14:23:18;;;;;;;2.58;1.50;;;;;;;;;;4956216;28;20246;-77
2022/10/07 14:25:46;;;;;;;5.90;1.98;;;;;;;;;;4973589;28;20199;-77
2022/10/07 14:28:29;;;;;;;4.47;2.00;;;;;;;;;;4973396;28;20186;-77
2022/10/07 14:37:09;;;;;;;1.92;1.40;;;;;;;;;;4973530;28;20211;-77
2022/10/07 14:39:46;;;;;;;3.90;1.90;;;;;;;;;;4972203;28;20525;-77
2022/10/07 14:42:18;;;;;;;2.83;1.85;;;;;;;;;;4971846;28;20182;-77
2022/10/07 14:44:44;;;;;;;2.88;1.88;;;;;;;;;;4972118;28;20271;-77
2022/10/07 14:47:11;;;;;;;2.33;1.60;;;;;;;;;;4972041;28;20206;-77
2022/10/07 14:49:40;;;;;;;4.72;2.15;;;;;;;;;;4971919;28;20186;-77
2022/10/07 14:52:10;;;;;;;3.63;1.90;;;;;;;;;;4956205;28;20188;-77
2022/10/07 14:54:36;;;;;;;4.55;1.70;;;;;;;;;;4971830;28;20176;-77
2022/10/07 14:57:02;;;;;;;2.45;1.50;;;;;;;;;;4971976;28;20200;-77
2022/10/07 14:59:28;;;;;;;4.97;1.90;;;;;;;;;;4955758;28;20250;-77
2022/10/07 15:01:54;;;;;;;4.45;1.80;;;;;;;;;;4955850;28;20205;-77
2022/10/07 15:04:20;;;;;;;2.28;1.58;;;;;;;;;;4956008;28;20204;-77
2022/10/07 15:06:47;;;;;;;5.00;1.70;;;;;;;;;;4972731;28;20200;-77
2022/10/07 15:09:13;;;;;;;2.83;1.83;;;;;;;;;;4956298;28;20172;-77
2022/10/07 15:11:40;;;;;;;4.95;1.55;;;;;;;;;;4955698;28;20184;-77